Time;durP1;ratioP1;P1;durP2;ratioP2;P2;SDS_P1;SDS_P2;PMS_P1;PMS_P2;Temp;Humidity;BMP_temperature;BMP_pressure;BME280_temperature;BME280_humidity;BME280_pressure;Samples;Min_cycle;Max_cycle;Signal;HPM_P1;HPM_P2
2022/09/20 00:00:41;;;;;;;20.03;8.40;;;;;;;;;;5033452;28;20679;-69
2022/09/20 00:03:07;;;;;;;16.97;9.00;;;;;;;;;;5033949;28;20651;-70
2022/09/20 00:05:34;;;;;;;21.57;9.07;;;;;;;;;;5033675;28;20199;-70
2022/09/20 00:08:00;;;;;;;17.67;8.90;;;;;;;;;;5033525;28;20228;-71
2022/09/20 00:10:26;;;;;;;17.03;10.30;;;;;;;;;;5033713;28;20254;-70
2022/09/20 00:12:52;;;;;;;21.10;10.13;;;;;;;;;;5033419;28;20213;-69
2022/09/20 00:15:18;;;;;;;24.70;9.77;;;;;;;;;;5015596;28;20203;-69
2022/09/20 00:17:44;;;;;;;21.73;10.60;;;;;;;;;;5033617;28;20186;-69
2022/09/20 00:20:10;;;;;;;19.10;10.20;;;;;;;;;;5033377;28;20179;-69
2022/09/20 00:22:36;;;;;;;23.47;10.70;;;;;;;;;;5015647;28;20222;-70
2022/09/20 00:25:02;;;;;;;22.33;9.93;;;;;;;;;;5033215;28;20191;-69
2022/09/20 00:27:28;;;;;;;27.57;10.53;;;;;;;;;;5033222;28;20178;-69
2022/09/20 00:29:54;;;;;;;21.83;10.27;;;;;;;;;;5015578;28;20219;-70
2022/09/20 00:32:20;;;;;;;16.60;10.30;;;;;;;;;;5033089;28;20183;-69
2022/09/20 00:37:30;;;;;;;20.67;9.93;;;;;;;;;;5033417;28;20228;-70
2022/09/20 00:39:56;;;;;;;23.73;10.67;;;;;;;;;;5015457;28;20186;-69
2022/09/20 00:42:26;;;;;;;16.87;9.17;;;;;;;;;;5033069;28;20206;-70
2022/09/20 00:45:03;;;;;;;23.20;10.13;;;;;;;;;;5033267;28;20238;-69
2022/09/20 00:47:49;;;;;;;16.17;9.53;;;;;;;;;;5032994;28;20167;-69
2022/09/20 00:50:41;;;;;;;20.93;9.43;;;;;;;;;;5032614;28;20187;-69
2022/09/20 00:53:10;;;;;;;17.07;9.17;;;;;;;;;;5029406;28;20202;-69
2022/09/20 00:55:38;;;;;;;19.43;8.47;;;;;;;;;;5032869;28;20218;-69
2022/09/20 00:58:05;;;;;;;15.30;8.33;;;;;;;;;;5032816;28;20186;-69
2022/09/20 01:00:31;;;;;;;19.87;8.73;;;;;;;;;;5032773;28;20179;-70
2022/09/20 01:03:00;;;;;;;16.33;8.20;;;;;;;;;;5033280;28;20210;-69
2022/09/20 01:05:27;;;;;;;14.40;7.67;;;;;;;;;;5032708;28;20196;-70
2022/09/20 01:07:54;;;;;;;16.23;9.13;;;;;;;;;;5032983;28;20644;-70
2022/09/20 01:10:20;;;;;;;19.27;8.83;;;;;;;;;;5033087;28;20548;-69
2022/09/20 01:12:47;;;;;;;14.97;8.07;;;;;;;;;;5032775;28;20175;-69
2022/09/20 01:15:14;;;;;;;17.80;8.30;;;;;;;;;;5032833;28;20336;-69
2022/09/20 01:17:43;;;;;;;15.47;7.27;;;;;;;;;;5033120;28;20195;-69
2022/09/20 01:20:13;;;;;;;14.37;7.83;;;;;;;;;;5015062;28;20187;-69
2022/09/20 01:22:39;;;;;;;15.27;7.90;;;;;;;;;;5015005;28;20207;-70
2022/09/20 01:25:08;;;;;;;20.97;8.10;;;;;;;;;;5014971;28;20577;-69
2022/09/20 01:27:45;;;;;;;17.67;8.33;;;;;;;;;;5032654;28;20648;-69
2022/09/20 01:30:13;;;;;;;18.00;7.43;;;;;;;;;;5032675;28;20179;-69
2022/09/20 01:32:45;;;;;;;20.87;7.70;;;;;;;;;;5033236;28;20183;-69
2022/09/20 01:35:11;;;;;;;17.23;7.67;;;;;;;;;;5033071;28;20285;-70
2022/09/20 01:37:44;;;;;;;17.73;8.10;;;;;;;;;;5032433;28;20549;-69
2022/09/20 01:40:18;;;;;;;15.57;7.20;;;;;;;;;;5032860;28;20170;-69
2022/09/20 01:43:07;;;;;;;13.70;7.03;;;;;;;;;;5032818;28;20654;-69
2022/09/20 01:45:33;;;;;;;19.37;7.57;;;;;;;;;;5034822;28;20278;-69
2022/09/20 01:48:02;;;;;;;18.23;8.50;;;;;;;;;;5018351;28;20218;-69
2022/09/20 01:50:37;;;;;;;12.77;6.93;;;;;;;;;;5018240;28;20179;-69
2022/09/20 01:53:15;;;;;;;16.50;8.30;;;;;;;;;;5018175;28;20178;-70
2022/09/20 01:55:50;;;;;;;12.30;7.33;;;;;;;;;;5035556;28;20211;-69
2022/09/20 01:58:35;;;;;;;13.77;7.13;;;;;;;;;;5035895;28;20722;-70
2022/09/20 02:01:13;;;;;;;18.47;7.30;;;;;;;;;;5035683;28;20678;-69
2022/09/20 02:03:53;;;;;;;17.00;7.77;;;;;;;;;;5036053;28;20163;-69
2022/09/20 02:06:19;;;;;;;19.87;7.30;;;;;;;;;;5035869;28;20194;-70
2022/09/20 02:09:04;;;;;;;16.83;6.40;;;;;;;;;;5035717;28;20186;-69
2022/09/20 02:12:09;;;;;;;16.13;7.20;;;;;;;;;;5035607;28;20190;-69
2022/09/20 02:14:58;;;;;;;15.07;7.70;;;;;;;;;;4955380;29;20186;-69
2022/09/20 02:17:27;;;;;;;11.63;6.47;;;;;;;;;;4955625;29;20694;-69
2022/09/20 02:19:59;;;;;;;14.80;7.23;;;;;;;;;;5008310;28;20682;-70
2022/09/20 02:22:38;;;;;;;16.40;6.70;;;;;;;;;;5017623;28;20203;-70
2022/09/20 02:25:23;;;;;;;13.47;6.60;;;;;;;;;;5035571;28;20660;-69
2022/09/20 02:28:12;;;;;;;13.73;7.10;;;;;;;;;;5017723;28;20194;-69
2022/09/20 02:30:57;;;;;;;18.23;7.37;;;;;;;;;;5035281;28;20535;-69
2022/09/20 02:33:29;;;;;;;20.87;6.67;;;;;;;;;;5035219;28;20194;-69
2022/09/20 02:36:30;;;;;;;17.27;6.40;;;;;;;;;;5017412;28;20206;-69
2022/09/20 02:39:16;;;;;;;11.80;6.33;;;;;;;;;;4954877;29;20187;-69
2022/09/20 02:42:01;;;;;;;16.07;6.13;;;;;;;;;;5029949;28;20676;-70
2022/09/20 02:44:45;;;;;;;16.33;6.50;;;;;;;;;;5017256;28;20179;-69
2022/09/20 02:47:30;;;;;;;12.67;6.00;;;;;;;;;;5034901;28;20184;-69
2022/09/20 02:50:03;;;;;;;13.37;6.07;;;;;;;;;;5034986;28;20542;-69
2022/09/20 02:52:38;;;;;;;20.13;6.20;;;;;;;;;;5035166;28;20538;-69
2022/09/20 02:55:04;;;;;;;19.60;6.40;;;;;;;;;;5034478;28;20229;-70
2022/09/20 02:57:42;;;;;;;18.20;5.87;;;;;;;;;;5017013;28;20620;-70
2022/09/20 03:00:14;;;;;;;17.70;6.13;;;;;;;;;;5016902;28;20178;-70
2022/09/20 03:03:01;;;;;;;12.10;5.90;;;;;;;;;;5016921;28;20209;-70
2022/09/20 03:05:46;;;;;;;15.47;5.57;;;;;;;;;;5016864;28;20206;-69
2022/09/20 03:08:20;;;;;;;12.90;6.73;;;;;;;;;;5034802;28;20675;-71
2022/09/20 03:10:58;;;;;;;14.10;6.10;;;;;;;;;;5034755;28;20159;-69
2022/09/20 03:13:27;;;;;;;13.53;6.27;;;;;;;;;;5034635;28;20258;-69
2022/09/20 03:16:01;;;;;;;14.97;6.23;;;;;;;;;;5034653;28;20203;-70
2022/09/20 03:18:42;;;;;;;16.13;6.07;;;;;;;;;;5034454;28;20176;-69
2022/09/20 03:21:12;;;;;;;11.60;5.70;;;;;;;;;;5034542;28;20199;-70
2022/09/20 03:23:49;;;;;;;15.43;6.53;;;;;;;;;;5034141;28;20179;-70
2022/09/20 03:26:35;;;;;;;20.20;6.23;;;;;;;;;;5034231;28;20199;-69
2022/09/20 03:29:02;;;;;;;15.33;5.90;;;;;;;;;;4994291;28;20717;-70
2022/09/20 03:31:28;;;;;;;11.07;5.90;;;;;;;;;;5034143;28;20180;-69
2022/09/20 03:34:12;;;;;;;13.67;5.87;;;;;;;;;;5034270;28;20236;-70
2022/09/20 03:36:57;;;;;;;14.13;6.20;;;;;;;;;;5034034;28;20233;-69
2022/09/20 03:39:43;;;;;;;10.47;5.60;;;;;;;;;;5016373;28;20198;-70
2022/09/20 03:42:21;;;;;;;13.97;5.97;;;;;;;;;;5033838;28;20191;-69
2022/09/20 03:44:47;;;;;;;14.13;5.80;;;;;;;;;;5033958;28;20756;-69
2022/09/20 03:47:24;;;;;;;10.30;6.20;;;;;;;;;;5033790;28;20207;-69
2022/09/20 03:50:05;;;;;;;16.67;6.27;;;;;;;;;;5016040;28;20171;-69
2022/09/20 03:52:38;;;;;;;11.30;6.10;;;;;;;;;;5034054;28;20650;-70
2022/09/20 03:55:04;;;;;;;14.67;5.83;;;;;;;;;;5015799;28;20214;-69
2022/09/20 03:57:45;;;;;;;14.77;6.17;;;;;;;;;;5034077;28;20229;-69
2022/09/20 04:00:21;;;;;;;14.23;6.50;;;;;;;;;;5015985;28;20183;-70
2022/09/20 04:03:02;;;;;;;13.63;5.70;;;;;;;;;;5035113;28;20205;-70
2022/09/20 04:05:40;;;;;;;12.93;5.90;;;;;;;;;;5033899;28;20191;-69
2022/09/20 04:08:11;;;;;;;15.03;6.80;;;;;;;;;;5015308;28;20269;-70
2022/09/20 04:10:56;;;;;;;10.10;5.60;;;;;;;;;;5033448;28;20266;-70
2022/09/20 04:13:35;;;;;;;19.40;6.63;;;;;;;;;;5033696;28;20183;-70
2022/09/20 04:16:01;;;;;;;17.80;5.87;;;;;;;;;;5033358;28;20195;-69
2022/09/20 04:18:33;;;;;;;14.77;6.33;;;;;;;;;;5033567;28;20175;-70
2022/09/20 04:21:10;;;;;;;12.43;5.90;;;;;;;;;;5033235;28;20199;-69
2022/09/20 04:23:45;;;;;;;14.53;6.30;;;;;;;;;;5015662;28;20262;-69
2022/09/20 04:26:11;;;;;;;16.43;6.30;;;;;;;;;;5015515;28;20198;-70
2022/09/20 04:28:48;;;;;;;10.13;5.87;;;;;;;;;;5033543;28;20178;-69
2022/09/20 04:31:19;;;;;;;14.80;6.20;;;;;;;;;;5015525;28;20190;-69
2022/09/20 04:33:48;;;;;;;17.83;6.60;;;;;;;;;;5033453;28;20233;-70
2022/09/20 04:36:32;;;;;;;14.17;6.47;;;;;;;;;;5015496;28;20230;-69
2022/09/20 04:39:21;;;;;;;16.10;6.27;;;;;;;;;;5033475;28;20206;-69
2022/09/20 04:42:02;;;;;;;16.07;7.03;;;;;;;;;;5033366;28;20195;-69
2022/09/20 04:44:31;;;;;;;10.27;6.03;;;;;;;;;;5016556;28;20229;-69
2022/09/20 04:47:15;;;;;;;11.03;6.17;;;;;;;;;;5033575;28;20274;-70
2022/09/20 04:50:00;;;;;;;18.87;6.50;;;;;;;;;;5034039;28;20678;-70
2022/09/20 04:52:44;;;;;;;11.97;7.03;;;;;;;;;;5015583;28;20553;-70
2022/09/20 04:55:16;;;;;;;15.57;6.63;;;;;;;;;;5032993;28;20218;-69
2022/09/20 04:57:45;;;;;;;13.50;6.90;;;;;;;;;;5033030;28;20183;-69
2022/09/20 05:00:14;;;;;;;15.40;7.00;;;;;;;;;;5033551;28;20183;-69
2022/09/20 05:02:59;;;;;;;14.00;6.20;;;;;;;;;;5015244;28;20203;-69
2022/09/20 05:05:42;;;;;;;10.17;6.47;;;;;;;;;;5033044;28;20213;-69
2022/09/20 05:08:29;;;;;;;17.50;7.60;;;;;;;;;;5033350;28;20163;-69
2022/09/20 05:11:01;;;;;;;11.90;5.97;;;;;;;;;;5015330;28;20179;-69
2022/09/20 05:13:37;;;;;;;15.87;7.03;;;;;;;;;;5033261;28;20179;-70
2022/09/20 05:16:05;;;;;;;16.97;6.63;;;;;;;;;;5033192;28;20685;-69
2022/09/20 05:18:34;;;;;;;18.13;8.23;;;;;;;;;;5015589;28;20191;-69
2022/09/20 05:21:12;;;;;;;11.27;6.47;;;;;;;;;;5018178;28;20199;-69
2022/09/20 05:23:52;;;;;;;11.83;6.00;;;;;;;;;;5037146;28;20229;-69
2022/09/20 05:26:29;;;;;;;16.77;6.87;;;;;;;;;;5036425;28;20191;-69
2022/09/20 05:28:59;;;;;;;15.57;6.47;;;;;;;;;;5018704;28;20217;-69
2022/09/20 05:31:45;;;;;;;14.73;7.17;;;;;;;;;;5018585;28;20258;-69
2022/09/20 05:34:31;;;;;;;16.17;7.37;;;;;;;;;;5036310;28;20191;-71
2022/09/20 05:37:16;;;;;;;13.93;7.10;;;;;;;;;;5018542;28;20175;-69
2022/09/20 05:39:45;;;;;;;16.97;7.10;;;;;;;;;;5019492;28;20194;-69
2022/09/20 05:42:24;;;;;;;14.40;7.33;;;;;;;;;;5018681;28;20668;-70
2022/09/20 05:44:55;;;;;;;14.47;6.80;;;;;;;;;;5018375;28;20575;-69
2022/09/20 05:47:31;;;;;;;11.60;7.13;;;;;;;;;;5036321;28;20175;-70
2022/09/20 05:50:03;;;;;;;15.93;7.37;;;;;;;;;;5036177;28;20166;-69
2022/09/20 05:52:38;;;;;;;14.63;7.47;;;;;;;;;;5018530;28;20183;-70
2022/09/20 05:55:25;;;;;;;12.60;7.10;;;;;;;;;;5018135;28;20273;-69
2022/09/20 05:57:55;;;;;;;19.40;7.53;;;;;;;;;;5018378;28;20175;-70
2022/09/20 06:00:25;;;;;;;15.50;7.43;;;;;;;;;;5036322;28;20225;-69
2022/09/20 06:02:54;;;;;;;15.50;6.77;;;;;;;;;;5018155;28;20210;-69
2022/09/20 06:05:32;;;;;;;14.43;6.97;;;;;;;;;;5036169;28;20203;-69
2022/09/20 06:08:17;;;;;;;13.13;6.63;;;;;;;;;;5018306;28;20675;-69
2022/09/20 06:10:56;;;;;;;14.40;6.90;;;;;;;;;;5035994;28;20540;-69
2022/09/20 06:13:37;;;;;;;16.10;7.40;;;;;;;;;;5018029;28;20171;-69
2022/09/20 06:16:04;;;;;;;12.33;7.07;;;;;;;;;;5035428;28;20196;-69
2022/09/20 06:18:30;;;;;;;14.23;8.03;;;;;;;;;;5017887;28;20181;-69
2022/09/20 06:20:56;;;;;;;11.47;6.93;;;;;;;;;;5035644;28;20317;-70
2022/09/20 06:23:22;;;;;;;16.17;7.03;;;;;;;;;;5017797;28;20266;-69
2022/09/20 06:26:16;;;;;;;15.37;7.83;;;;;;;;;;5017584;28;20671;-69
2022/09/20 06:28:45;;;;;;;17.67;6.80;;;;;;;;;;5014675;28;20261;-69
2022/09/20 06:31:11;;;;;;;11.70;6.87;;;;;;;;;;5035199;28;20185;-69
2022/09/20 06:33:43;;;;;;;14.10;6.77;;;;;;;;;;5017408;28;20273;-69
2022/09/20 06:41:48;;;;;;;17.27;7.33;;;;;;;;;;5035644;28;20206;-69
2022/09/20 06:44:14;;;;;;;16.83;6.97;;;;;;;;;;5035325;28;20561;-69
2022/09/20 06:46:40;;;;;;;13.30;6.13;;;;;;;;;;5017347;28;20202;-69
2022/09/20 06:49:09;;;;;;;15.17;6.73;;;;;;;;;;5035005;28;20175;-69
2022/09/20 06:51:36;;;;;;;15.47;6.20;;;;;;;;;;5017310;28;20191;-70
2022/09/20 06:54:03;;;;;;;14.00;6.83;;;;;;;;;;5034868;28;20549;-70
2022/09/20 06:56:30;;;;;;;15.50;7.03;;;;;;;;;;5034646;28;20215;-69
2022/09/20 06:58:57;;;;;;;15.77;6.70;;;;;;;;;;5017085;28;20198;-69
2022/09/20 07:01:22;;;;;;;12.27;5.93;;;;;;;;;;5017033;28;20256;-69
2022/09/20 07:03:48;;;;;;;13.47;5.57;;;;;;;;;;5016948;28;20182;-69
2022/09/20 07:06:16;;;;;;;10.90;5.83;;;;;;;;;;5017127;28;20214;-70
2022/09/20 07:08:42;;;;;;;12.10;6.23;;;;;;;;;;5034717;28;20262;-70
2022/09/20 07:11:15;;;;;;;12.07;5.33;;;;;;;;;;5016942;28;20214;-69
2022/09/20 07:13:41;;;;;;;9.10;5.13;;;;;;;;;;5017275;28;20187;-70
2022/09/20 07:16:08;;;;;;;9.73;5.00;;;;;;;;;;5034506;28;20790;-70
2022/09/20 07:18:34;;;;;;;9.37;4.73;;;;;;;;;;5034657;28;20183;-69
2022/09/20 07:21:00;;;;;;;9.53;5.10;;;;;;;;;;5016625;28;20204;-70
2022/09/20 07:23:26;;;;;;;12.10;5.20;;;;;;;;;;5034359;28;20187;-70
2022/09/20 07:25:53;;;;;;;11.53;5.40;;;;;;;;;;5034273;28;20190;-69
2022/09/20 07:28:19;;;;;;;10.30;5.40;;;;;;;;;;5034297;28;20181;-70
2022/09/20 07:30:45;;;;;;;11.73;5.20;;;;;;;;;;5034537;28;20657;-69
2022/09/20 07:33:16;;;;;;;11.50;5.23;;;;;;;;;;5016550;28;20179;-70
2022/09/20 07:35:41;;;;;;;12.43;5.40;;;;;;;;;;5034123;28;20237;-69
2022/09/20 07:38:07;;;;;;;18.00;5.40;;;;;;;;;;5034142;28;20176;-69
2022/09/20 07:40:33;;;;;;;11.33;5.07;;;;;;;;;;5033998;28;20525;-70
2022/09/20 07:42:59;;;;;;;8.67;4.33;;;;;;;;;;5033327;28;20270;-69
2022/09/20 07:45:25;;;;;;;7.50;4.00;;;;;;;;;;5034222;28;20206;-70
2022/09/20 07:47:52;;;;;;;9.90;3.77;;;;;;;;;;5034157;28;20627;-69
2022/09/20 07:50:18;;;;;;;10.37;3.63;;;;;;;;;;5033925;28;20230;-69
2022/09/20 07:52:44;;;;;;;8.90;3.67;;;;;;;;;;5033925;28;20262;-69
2022/09/20 07:55:10;;;;;;;7.47;3.60;;;;;;;;;;5033630;28;20264;-70
2022/09/20 07:57:37;;;;;;;11.93;4.27;;;;;;;;;;5033923;28;20558;-69
2022/09/20 08:00:05;;;;;;;11.97;4.63;;;;;;;;;;5015910;28;20179;-70
2022/09/20 08:02:31;;;;;;;9.67;4.83;;;;;;;;;;5015744;28;20340;-69
2022/09/20 08:04:57;;;;;;;8.87;4.13;;;;;;;;;;5033400;28;20227;-69
2022/09/20 08:07:23;;;;;;;10.87;4.37;;;;;;;;;;5016605;28;20233;-69
2022/09/20 08:09:49;;;;;;;9.47;4.70;;;;;;;;;;5033460;28;20174;-69
2022/09/20 08:12:18;;;;;;;9.10;4.20;;;;;;;;;;5015646;28;20193;-69
2022/09/20 08:14:44;;;;;;;12.50;4.60;;;;;;;;;;5015708;28;20206;-69
2022/09/20 08:17:10;;;;;;;15.30;4.67;;;;;;;;;;5033355;28;20226;-69
2022/09/20 08:19:38;;;;;;;11.87;4.63;;;;;;;;;;5015594;28;20233;-70
2022/09/20 08:22:05;;;;;;;10.30;5.23;;;;;;;;;;5015556;28;20249;-69
2022/09/20 08:24:31;;;;;;;11.27;4.37;;;;;;;;;;5015462;28;20183;-69
2022/09/20 08:26:58;;;;;;;8.23;4.50;;;;;;;;;;5015506;28;20551;-69
2022/09/20 08:29:24;;;;;;;8.50;4.50;;;;;;;;;;5015491;28;20175;-69
2022/09/20 08:31:51;;;;;;;13.20;3.93;;;;;;;;;;5015488;28;20245;-69
2022/09/20 08:34:17;;;;;;;12.27;4.10;;;;;;;;;;5033174;28;20262;-70
2022/09/20 08:36:45;;;;;;;7.53;4.07;;;;;;;;;;5015361;28;20205;-69
2022/09/20 08:39:11;;;;;;;11.73;4.13;;;;;;;;;;5015396;28;20191;-69
2022/09/20 08:41:41;;;;;;;6.87;3.63;;;;;;;;;;5033085;28;20195;-69
2022/09/20 08:44:11;;;;;;;12.43;3.80;;;;;;;;;;5033111;28;20202;-69
2022/09/20 08:46:48;;;;;;;14.53;4.17;;;;;;;;;;5033771;28;20588;-70
2022/09/20 08:49:18;;;;;;;9.63;3.63;;;;;;;;;;5033037;28;20703;-69
2022/09/20 08:51:48;;;;;;;6.77;2.80;;;;;;;;;;5033779;28;20172;-69
2022/09/20 08:54:15;;;;;;;6.77;3.00;;;;;;;;;;5035796;28;20171;-70
2022/09/20 08:56:43;;;;;;;12.27;2.97;;;;;;;;;;5036851;28;20206;-69
2022/09/20 08:59:13;;;;;;;14.33;3.70;;;;;;;;;;5019279;28;20241;-69
2022/09/20 09:01:39;;;;;;;6.93;2.53;;;;;;;;;;5037359;28;20191;-70
2022/09/20 09:04:15;;;;;;;6.50;2.20;;;;;;;;;;5036906;28;20579;-70
2022/09/20 09:06:42;;;;;;;12.83;2.90;;;;;;;;;;5036735;28;20245;-70
2022/09/20 09:09:12;;;;;;;9.50;3.00;;;;;;;;;;5036734;28;20233;-69
2022/09/20 09:11:40;;;;;;;12.67;2.77;;;;;;;;;;5036828;28;20183;-69
2022/09/20 09:17:11;;;;;;;11.83;2.83;;;;;;;;;;5036943;28;20182;-70
2022/09/20 09:19:46;;;;;;;8.07;2.73;;;;;;;;;;5037480;28;20183;-68
2022/09/20 09:22:17;;;;;;;10.30;2.30;;;;;;;;;;5018922;28;20203;-68
2022/09/20 09:24:43;;;;;;;7.23;2.50;;;;;;;;;;5036927;28;20203;-68
2022/09/20 09:27:16;;;;;;;9.27;2.47;;;;;;;;;;5036665;28;20175;-68
2022/09/20 09:29:52;;;;;;;10.13;2.90;;;;;;;;;;5036662;28;20266;-68
2022/09/20 09:32:19;;;;;;;6.90;2.50;;;;;;;;;;5036256;28;20179;-69
2022/09/20 09:34:45;;;;;;;4.90;2.17;;;;;;;;;;5036241;28;20221;-68
2022/09/20 09:37:32;;;;;;;11.37;2.20;;;;;;;;;;5036451;28;20627;-68
2022/09/20 09:40:12;;;;;;;9.70;2.53;;;;;;;;;;5036697;28;20667;-68
2022/09/20 09:42:47;;;;;;;7.70;2.13;;;;;;;;;;5036020;28;20226;-68
2022/09/20 09:45:25;;;;;;;5.93;1.90;;;;;;;;;;5036586;28;20194;-68
2022/09/20 09:47:51;;;;;;;8.50;2.23;;;;;;;;;;5035998;28;20163;-68
2022/09/20 09:50:22;;;;;;;7.63;2.00;;;;;;;;;;5018157;28;20179;-68
2022/09/20 09:52:58;;;;;;;10.87;2.30;;;;;;;;;;5035926;28;20186;-68
2022/09/20 09:55:26;;;;;;;13.73;2.80;;;;;;;;;;5035979;28;20591;-68
2022/09/20 09:58:00;;;;;;;11.30;2.30;;;;;;;;;;5035827;28;20230;-68
2022/09/20 10:00:27;;;;;;;9.50;2.47;;;;;;;;;;5018063;28;20232;-68
2022/09/20 10:03:11;;;;;;;8.57;2.80;;;;;;;;;;5035784;28;20191;-68
2022/09/20 10:05:43;;;;;;;8.33;2.10;;;;;;;;;;5017073;28;20222;-68
2022/09/20 10:08:18;;;;;;;5.87;2.03;;;;;;;;;;5017914;28;20232;-68
2022/09/20 10:10:51;;;;;;;5.93;1.90;;;;;;;;;;5035590;28;20587;-68
2022/09/20 10:13:17;;;;;;;6.30;1.90;;;;;;;;;;5035863;28;20590;-68
2022/09/20 10:15:53;;;;;;;6.60;2.87;;;;;;;;;;5017606;28;20338;-68
2022/09/20 10:18:19;;;;;;;9.17;2.40;;;;;;;;;;5035400;28;20242;-68
2022/09/20 10:20:52;;;;;;;9.63;2.47;;;;;;;;;;5017409;28;20329;-68
2022/09/20 10:23:18;;;;;;;5.50;1.93;;;;;;;;;;5017483;28;20266;-68
2022/09/20 10:25:53;;;;;;;5.70;2.30;;;;;;;;;;5017440;28;20199;-68
2022/09/20 10:28:22;;;;;;;11.90;5.23;;;;;;;;;;5035203;28;20179;-68
2022/09/20 10:31:01;;;;;;;10.40;3.20;;;;;;;;;;5035471;28;20704;-68
2022/09/20 10:33:31;;;;;;;10.33;3.07;;;;;;;;;;5017459;28;20175;-68
2022/09/20 10:36:06;;;;;;;6.00;2.23;;;;;;;;;;5035384;28;20195;-68
2022/09/20 10:38:35;;;;;;;6.50;2.10;;;;;;;;;;5035008;28;20643;-68
2022/09/20 10:44:05;;;;;;;4.70;1.87;;;;;;;;;;5035254;28;20174;-68
2022/09/20 10:46:50;;;;;;;5.00;2.00;;;;;;;;;;5034879;28;20195;-68
2022/09/20 10:49:16;;;;;;;4.50;2.00;;;;;;;;;;5035043;28;20266;-68
2022/09/20 10:52:01;;;;;;;9.27;1.90;;;;;;;;;;5017032;28;20179;-68
2022/09/20 10:55:02;;;;;;;6.03;1.97;;;;;;;;;;5034578;28;20183;-68
2022/09/20 10:57:47;;;;;;;4.97;1.80;;;;;;;;;;4975828;28;20187;-68
2022/09/20 11:00:31;;;;;;;4.43;1.67;;;;;;;;;;5016900;28;20183;-68
2022/09/20 11:03:16;;;;;;;8.50;2.10;;;;;;;;;;5034442;28;20195;-68
2022/09/20 11:05:51;;;;;;;9.17;4.40;;;;;;;;;;5016655;28;20200;-67
2022/09/20 11:08:21;;;;;;;8.43;1.73;;;;;;;;;;5034527;28;20524;-67
2022/09/20 11:11:13;;;;;;;7.70;2.20;;;;;;;;;;5035688;28;20171;-67
2022/09/20 11:13:58;;;;;;;7.07;3.13;;;;;;;;;;5004458;28;20249;-67
2022/09/20 11:16:28;;;;;;;6.23;2.77;;;;;;;;;;5034568;28;20195;-67
2022/09/20 11:19:03;;;;;;;4.03;1.70;;;;;;;;;;5034486;28;20179;-67
2022/09/20 11:21:50;;;;;;;2.90;1.80;;;;;;;;;;5016377;28;20198;-67
2022/09/20 11:24:16;;;;;;;3.23;1.37;;;;;;;;;;5016137;28;20191;-68
2022/09/20 11:26:45;;;;;;;4.77;1.60;;;;;;;;;;5016337;28;20199;-67
2022/09/20 11:29:24;;;;;;;4.57;1.83;;;;;;;;;;5034050;28;20184;-68
2022/09/20 11:31:52;;;;;;;3.37;1.40;;;;;;;;;;5033992;28;20220;-68
2022/09/20 11:34:21;;;;;;;2.47;1.30;;;;;;;;;;5034019;28;20175;-68
2022/09/20 11:36:53;;;;;;;2.87;1.40;;;;;;;;;;5033819;28;20207;-67
2022/09/20 11:39:23;;;;;;;1.90;1.43;;;;;;;;;;5034191;28;20616;-67
2022/09/20 11:41:50;;;;;;;5.80;1.73;;;;;;;;;;5033717;28;20202;-68
2022/09/20 11:44:17;;;;;;;3.13;1.40;;;;;;;;;;5016382;28;20562;-67
2022/09/20 11:47:04;;;;;;;2.67;1.33;;;;;;;;;;5015916;28;20293;-67
2022/09/20 11:49:49;;;;;;;1.47;1.10;;;;;;;;;;5034768;28;20250;-67
2022/09/20 11:52:35;;;;;;;3.23;1.60;;;;;;;;;;5015865;28;20186;-68
2022/09/20 11:55:19;;;;;;;2.23;1.27;;;;;;;;;;5033452;28;20675;-68
2022/09/20 11:57:45;;;;;;;4.80;1.97;;;;;;;;;;5015839;28;20249;-68
2022/09/20 12:00:12;;;;;;;2.67;1.80;;;;;;;;;;5034072;28;20183;-68
2022/09/20 12:02:47;;;;;;;5.53;1.70;;;;;;;;;;5015680;28;20209;-66
2022/09/20 12:05:28;;;;;;;4.53;1.60;;;;;;;;;;5033385;28;20328;-69
2022/09/20 12:07:56;;;;;;;2.63;1.20;;;;;;;;;;5033685;28;20720;-68
2022/09/20 12:10:24;;;;;;;3.20;1.43;;;;;;;;;;5015548;28;20618;-68
2022/09/20 12:12:55;;;;;;;2.07;1.10;;;;;;;;;;5033442;28;20186;-68
2022/09/20 12:15:21;;;;;;;3.03;1.30;;;;;;;;;;5033488;28;20199;-68
2022/09/20 12:17:47;;;;;;;1.53;1.10;;;;;;;;;;5033230;28;20178;-68
2022/09/20 12:20:33;;;;;;;1.20;1.10;;;;;;;;;;5033524;28;20182;-66
2022/09/20 12:23:18;;;;;;;4.13;1.43;;;;;;;;;;5015480;28;20579;-66
2022/09/20 12:25:59;;;;;;;2.70;1.33;;;;;;;;;;5015381;28;20206;-66
2022/09/20 12:28:35;;;;;;;4.63;1.73;;;;;;;;;;5032997;28;20612;-67
2022/09/20 12:31:20;;;;;;;4.40;1.30;;;;;;;;;;5033320;28;20544;-67
2022/09/20 12:34:04;;;;;;;4.73;1.73;;;;;;;;;;5033347;28;20183;-66
2022/09/20 12:36:34;;;;;;;5.13;1.67;;;;;;;;;;5032959;28;20199;-66
2022/09/20 12:39:02;;;;;;;4.17;1.50;;;;;;;;;;5033069;28;20175;-66
2022/09/20 12:41:44;;;;;;;2.50;1.50;;;;;;;;;;5015258;28;20290;-67
2022/09/20 12:44:27;;;;;;;2.83;1.43;;;;;;;;;;5033551;28;20160;-67
2022/09/20 12:47:01;;;;;;;5.53;2.63;;;;;;;;;;5032998;28;20175;-66
2022/09/20 12:52:49;;;;;;;2.70;1.30;;;;;;;;;;5033147;28;20547;-66
2022/09/20 12:55:28;;;;;;;18.03;11.97;;;;;;;;;;5032715;28;20217;-67
2022/09/20 12:58:15;;;;;;;9.47;4.83;;;;;;;;;;5032890;28;20175;-67
2022/09/20 13:00:46;;;;;;;9.20;6.20;;;;;;;;;;5015113;28;20221;-66
2022/09/20 13:05:51;;;;;;;2.50;1.20;;;;;;;;;;5075345;22;20272;-67
2022/09/20 13:08:19;;;;;;;4.17;1.20;;;;;;;;;;5051501;28;20182;-67
2022/09/20 13:10:50;;;;;;;3.30;1.20;;;;;;;;;;5052710;28;20170;-67
2022/09/20 13:13:25;;;;;;;6.13;1.90;;;;;;;;;;5053039;28;20259;-67
2022/09/20 13:15:52;;;;;;;3.57;1.30;;;;;;;;;;5032806;28;20186;-67
2022/09/20 13:18:19;;;;;;;3.90;1.53;;;;;;;;;;5031552;28;20274;-67
2022/09/20 13:20:45;;;;;;;3.40;1.57;;;;;;;;;;5031395;28;20191;-67
2022/09/20 13:23:19;;;;;;;2.10;1.30;;;;;;;;;;5033021;28;20195;-67
2022/09/20 13:25:46;;;;;;;2.93;1.33;;;;;;;;;;5033040;28;20170;-67
2022/09/20 13:28:21;;;;;;;2.60;1.80;;;;;;;;;;5031341;28;20188;-67
2022/09/20 13:30:47;;;;;;;2.80;1.27;;;;;;;;;;5033087;28;20194;-67
2022/09/20 13:33:16;;;;;;;5.77;1.90;;;;;;;;;;5031376;28;20218;-66
2022/09/20 13:35:47;;;;;;;4.27;1.60;;;;;;;;;;5032632;28;20226;-67
2022/09/20 13:38:14;;;;;;;4.23;1.80;;;;;;;;;;5031401;28;20217;-67
2022/09/20 13:40:41;;;;;;;7.73;2.70;;;;;;;;;;5032499;28;20185;-66
2022/09/20 13:43:20;;;;;;;7.10;3.07;;;;;;;;;;5034899;28;20233;-68
2022/09/20 13:45:47;;;;;;;7.10;2.50;;;;;;;;;;5036662;28;20524;-68
2022/09/20 13:48:16;;;;;;;4.63;2.60;;;;;;;;;;5036236;28;20179;-67
2022/09/20 13:50:41;;;;;;;3.10;1.23;;;;;;;;;;5036123;28;20179;-67
2022/09/20 13:53:14;;;;;;;4.37;2.23;;;;;;;;;;5036437;28;20187;-67
2022/09/20 13:55:42;;;;;;;5.27;2.27;;;;;;;;;;5034731;28;20210;-68
2022/09/20 13:58:28;;;;;;;5.70;1.47;;;;;;;;;;5036021;28;20179;-67
2022/09/20 14:00:59;;;;;;;5.23;2.77;;;;;;;;;;5035729;28;20183;-67
2022/09/20 14:03:26;;;;;;;4.90;2.70;;;;;;;;;;5035795;28;20636;-67
2022/09/20 14:05:53;;;;;;;5.10;1.90;;;;;;;;;;5034913;28;20176;-68
2022/09/20 14:08:24;;;;;;;4.23;1.63;;;;;;;;;;5034703;28;20229;-67
2022/09/20 14:11:02;;;;;;;4.47;1.87;;;;;;;;;;5034361;28;20241;-68
2022/09/20 14:13:30;;;;;;;3.40;2.17;;;;;;;;;;5035617;28;20240;-67
2022/09/20 14:15:57;;;;;;;3.30;1.83;;;;;;;;;;5035442;28;20182;-68
2022/09/20 14:18:23;;;;;;;6.47;1.60;;;;;;;;;;5035466;28;20258;-67
2022/09/20 14:20:49;;;;;;;3.17;1.43;;;;;;;;;;5035382;28;20172;-68
2022/09/20 14:23:23;;;;;;;5.13;2.13;;;;;;;;;;5034188;28;20230;-67
2022/09/20 14:26:05;;;;;;;3.70;1.80;;;;;;;;;;5035219;28;20175;-67
2022/09/20 14:28:31;;;;;;;4.57;1.70;;;;;;;;;;5035552;28;20171;-68
2022/09/20 14:31:06;;;;;;;8.17;1.97;;;;;;;;;;5035509;28;20178;-67
2022/09/20 14:33:32;;;;;;;4.03;2.47;;;;;;;;;;5033926;28;20183;-68
2022/09/20 14:35:58;;;;;;;5.50;1.93;;;;;;;;;;5033898;28;20207;-67
2022/09/20 14:38:25;;;;;;;3.77;1.77;;;;;;;;;;5033901;28;20593;-67
2022/09/20 14:40:51;;;;;;;5.33;1.30;;;;;;;;;;5033787;28;20225;-67
2022/09/20 14:43:37;;;;;;;3.80;1.50;;;;;;;;;;5033855;28;20182;-68
2022/09/20 14:46:05;;;;;;;8.10;2.47;;;;;;;;;;5034710;28;20199;-68
2022/09/20 14:48:33;;;;;;;3.83;1.40;;;;;;;;;;5033715;28;20179;-67
2022/09/20 14:51:25;;;;;;;3.90;1.40;;;;;;;;;;5033360;28;20190;-67
2022/09/20 14:54:03;;;;;;;4.27;1.57;;;;;;;;;;5033245;28;20250;-68
2022/09/20 14:56:35;;;;;;;3.73;1.50;;;;;;;;;;5033555;28;20225;-66
2022/09/20 14:59:10;;;;;;;7.30;2.50;;;;;;;;;;5033594;28;20218;-70
2022/09/20 15:01:40;;;;;;;6.83;4.47;;;;;;;;;;5034588;28;20289;-67
2022/09/20 15:04:07;;;;;;;4.90;2.30;;;;;;;;;;5033122;28;20233;-68
2022/09/20 15:06:34;;;;;;;6.43;1.70;;;;;;;;;;5033344;28;20206;-67
2022/09/20 15:09:00;;;;;;;4.63;1.70;;;;;;;;;;5034559;28;20172;-68
2022/09/20 15:11:28;;;;;;;2.73;1.37;;;;;;;;;;5033180;28;20639;-68
2022/09/20 15:13:54;;;;;;;2.37;1.20;;;;;;;;;;5034740;28;20198;-67
2022/09/20 15:16:21;;;;;;;3.60;1.80;;;;;;;;;;5033524;28;20190;-68
2022/09/20 15:18:47;;;;;;;5.13;2.20;;;;;;;;;;5034923;28;20254;-67
2022/09/20 15:21:13;;;;;;;4.10;1.50;;;;;;;;;;5034848;28;20364;-67
2022/09/20 15:23:39;;;;;;;5.77;1.80;;;;;;;;;;5033126;28;20281;-68
2022/09/20 15:26:06;;;;;;;4.00;1.73;;;;;;;;;;5034935;28;20598;-67
2022/09/20 15:28:33;;;;;;;4.77;2.30;;;;;;;;;;5034956;28;20187;-68